sensor_id;sensor_type;location;lat;lon;timestamp;P1;durP1;ratioP1;P2;durP2;ratioP2
52530;SDS011;38441;52.894;6.040;2022-11-15T00:01:40;18.75;;;12.15;;
52530;SDS011;38441;52.894;6.040;2022-11-15T00:04:06;21.35;;;12.95;;
52530;SDS011;38441;52.894;6.040;2022-11-15T00:06:32;19.48;;;13.07;;
52530;SDS011;38441;52.894;6.040;2022-11-15T00:08:59;17.88;;;11.98;;
52530;SDS011;38441;52.894;6.040;2022-11-15T00:11:25;18.38;;;11.68;;
52530;SDS011;38441;52.894;6.040;2022-11-15T00:13:54;19.40;;;13.07;;
52530;SDS011;38441;52.894;6.040;2022-11-15T00:18:49;22.90;;;12.57;;
52530;SDS011;38441;52.894;6.040;2022-11-15T00:21:16;21.73;;;13.90;;
52530;SDS011;38441;52.894;6.040;2022-11-15T00:23:42;20.50;;;13.90;;
52530;SDS011;38441;52.894;6.040;2022-11-15T00:26:13;19.75;;;13.98;;
52530;SDS011;38441;52.894;6.040;2022-11-15T00:28:40;24.65;;;15.18;;
52530;SDS011;38441;52.894;6.040;2022-11-15T00:31:09;21.00;;;15.25;;
52530;SDS011;38441;52.894;6.040;2022-11-15T00:33:36;24.15;;;15.38;;
52530;SDS011;38441;52.894;6.040;2022-11-15T00:36:03;23.05;;;15.93;;
52530;SDS011;38441;52.894;6.040;2022-11-15T00:38:35;23.67;;;15.80;;
52530;SDS011;38441;52.894;6.040;2022-11-15T00:41:02;23.03;;;15.80;;
52530;SDS011;38441;52.894;6.040;2022-11-15T00:43:29;23.90;;;16.30;;
52530;SDS011;38441;52.894;6.040;2022-11-15T00:45:55;23.10;;;15.75;;
52530;SDS011;38441;52.894;6.040;2022-11-15T00:48:21;22.65;;;16.73;;
52530;SDS011;38441;52.894;6.040;2022-11-15T00:50:48;22.58;;;15.95;;
52530;SDS011;38441;52.894;6.040;2022-11-15T00:53:14;24.48;;;17.08;;
52530;SDS011;38441;52.894;6.040;2022-11-15T00:55:40;25.50;;;17.05;;
52530;SDS011;38441;52.894;6.040;2022-11-15T00:58:06;24.95;;;17.40;;
52530;SDS011;38441;52.894;6.040;2022-11-15T01:00:32;22.83;;;16.10;;
52530;SDS011;38441;52.894;6.040;2022-11-15T01:02:59;24.90;;;16.13;;
52530;SDS011;38441;52.894;6.040;2022-11-15T01:05:25;24.02;;;15.77;;
52530;SDS011;38441;52.894;6.040;2022-11-15T01:07:52;25.27;;;15.85;;
52530;SDS011;38441;52.894;6.040;2022-11-15T01:10:18;24.73;;;15.77;;
52530;SDS011;38441;52.894;6.040;2022-11-15T01:12:44;23.45;;;15.38;;
52530;SDS011;38441;52.894;6.040;2022-11-15T01:15:09;23.52;;;14.35;;
52530;SDS011;38441;52.894;6.040;2022-11-15T01:17:35;23.45;;;15.63;;
52530;SDS011;38441;52.894;6.040;2022-11-15T01:20:02;24.92;;;14.65;;
52530;SDS011;38441;52.894;6.040;2022-11-15T01:22:28;23.13;;;14.55;;
52530;SDS011;38441;52.894;6.040;2022-11-15T01:24:54;24.48;;;13.77;;
52530;SDS011;38441;52.894;6.040;2022-11-15T01:27:20;21.35;;;14.50;;
52530;SDS011;38441;52.894;6.040;2022-11-15T01:29:46;20.17;;;13.60;;
52530;SDS011;38441;52.894;6.040;2022-11-15T01:32:12;24.25;;;13.32;;
52530;SDS011;38441;52.894;6.040;2022-11-15T01:34:38;21.02;;;13.95;;
52530;SDS011;38441;52.894;6.040;2022-11-15T01:37:04;24.38;;;13.90;;
52530;SDS011;38441;52.894;6.040;2022-11-15T01:39:30;23.27;;;14.05;;
52530;SDS011;38441;52.894;6.040;2022-11-15T01:41:56;24.38;;;14.77;;
52530;SDS011;38441;52.894;6.040;2022-11-15T01:47:12;23.77;;;14.32;;
52530;SDS011;38441;52.894;6.040;2022-11-15T01:49:49;21.17;;;13.35;;
52530;SDS011;38441;52.894;6.040;2022-11-15T01:52:19;22.20;;;13.98;;
52530;SDS011;38441;52.894;6.040;2022-11-15T01:54:47;23.08;;;14.00;;
52530;SDS011;38441;52.894;6.040;2022-11-15T01:57:15;23.20;;;13.75;;
52530;SDS011;38441;52.894;6.040;2022-11-15T01:59:42;25.80;;;14.75;;
52530;SDS011;38441;52.894;6.040;2022-11-15T02:02:10;24.80;;;14.55;;
52530;SDS011;38441;52.894;6.040;2022-11-15T02:04:37;24.35;;;15.30;;
52530;SDS011;38441;52.894;6.040;2022-11-15T02:07:05;26.88;;;15.25;;
52530;SDS011;38441;52.894;6.040;2022-11-15T02:09:35;27.40;;;15.57;;
52530;SDS011;38441;52.894;6.040;2022-11-15T02:12:01;24.77;;;14.73;;
52530;SDS011;38441;52.894;6.040;2022-11-15T02:14:27;26.75;;;16.13;;
52530;SDS011;38441;52.894;6.040;2022-11-15T02:22:10;25.38;;;15.73;;
52530;SDS011;38441;52.894;6.040;2022-11-15T02:30:27;26.73;;;15.90;;
52530;SDS011;38441;52.894;6.040;2022-11-15T02:33:17;29.67;;;15.63;;
52530;SDS011;38441;52.894;6.040;2022-11-15T02:36:07;30.20;;;16.85;;
52530;SDS011;38441;52.894;6.040;2022-11-15T02:41:35;29.65;;;16.13;;
52530;SDS011;38441;52.894;6.040;2022-11-15T02:44:16;29.90;;;16.33;;
52530;SDS011;38441;52.894;6.040;2022-11-15T02:46:56;28.60;;;16.83;;
52530;SDS011;38441;52.894;6.040;2022-11-15T02:49:44;31.00;;;16.38;;
52530;SDS011;38441;52.894;6.040;2022-11-15T03:00:58;33.72;;;16.52;;
52530;SDS011;38441;52.894;6.040;2022-11-15T03:03:49;32.90;;;17.90;;
52530;SDS011;38441;52.894;6.040;2022-11-15T03:07:02;32.58;;;16.40;;
52530;SDS011;38441;52.894;6.040;2022-11-15T03:09:34;31.73;;;17.67;;
52530;SDS011;38441;52.894;6.040;2022-11-15T03:12:14;31.38;;;16.80;;
52530;SDS011;38441;52.894;6.040;2022-11-15T03:15:01;32.30;;;17.08;;
52530;SDS011;38441;52.894;6.040;2022-11-15T03:18:15;41.10;;;18.85;;
52530;SDS011;38441;52.894;6.040;2022-11-15T03:20:38;41.00;;;19.25;;
52530;SDS011;38441;52.894;6.040;2022-11-15T03:23:05;37.88;;;18.13;;
52530;SDS011;38441;52.894;6.040;2022-11-15T03:25:33;35.70;;;18.67;;
52530;SDS011;38441;52.894;6.040;2022-11-15T03:28:03;37.10;;;18.60;;
52530;SDS011;38441;52.894;6.040;2022-11-15T03:30:32;37.65;;;18.98;;
52530;SDS011;38441;52.894;6.040;2022-11-15T03:33:01;41.45;;;19.15;;
52530;SDS011;38441;52.894;6.040;2022-11-15T03:35:28;37.30;;;18.17;;
52530;SDS011;38441;52.894;6.040;2022-11-15T03:40:43;38.50;;;18.45;;
52530;SDS011;38441;52.894;6.040;2022-11-15T03:43:21;39.63;;;18.98;;
52530;SDS011;38441;52.894;6.040;2022-11-15T03:46:01;34.88;;;17.42;;
52530;SDS011;38441;52.894;6.040;2022-11-15T03:48:33;36.75;;;18.35;;
52530;SDS011;38441;52.894;6.040;2022-11-15T03:51:04;37.38;;;18.15;;
52530;SDS011;38441;52.894;6.040;2022-11-15T03:53:30;35.67;;;17.63;;
52530;SDS011;38441;52.894;6.040;2022-11-15T03:55:57;36.65;;;17.65;;
52530;SDS011;38441;52.894;6.040;2022-11-15T03:58:23;37.33;;;18.85;;
52530;SDS011;38441;52.894;6.040;2022-11-15T04:00:49;37.97;;;17.73;;
52530;SDS011;38441;52.894;6.040;2022-11-15T04:03:15;39.72;;;17.98;;
52530;SDS011;38441;52.894;6.040;2022-11-15T04:05:41;35.15;;;17.63;;
52530;SDS011;38441;52.894;6.040;2022-11-15T04:08:07;35.83;;;18.48;;
52530;SDS011;38441;52.894;6.040;2022-11-15T04:10:33;33.60;;;17.75;;
52530;SDS011;38441;52.894;6.040;2022-11-15T04:12:59;34.90;;;19.35;;
52530;SDS011;38441;52.894;6.040;2022-11-15T04:15:27;39.97;;;19.55;;
52530;SDS011;38441;52.894;6.040;2022-11-15T04:17:54;37.42;;;18.90;;
52530;SDS011;38441;52.894;6.040;2022-11-15T04:20:22;42.45;;;19.90;;
52530;SDS011;38441;52.894;6.040;2022-11-15T04:23:10;34.95;;;18.52;;
52530;SDS011;38441;52.894;6.040;2022-11-15T04:26:07;34.83;;;19.30;;
52530;SDS011;38441;52.894;6.040;2022-11-15T04:28:35;36.55;;;18.95;;
52530;SDS011;38441;52.894;6.040;2022-11-15T04:31:21;36.13;;;18.83;;
52530;SDS011;38441;52.894;6.040;2022-11-15T04:33:46;34.13;;;18.77;;
52530;SDS011;38441;52.894;6.040;2022-11-15T04:36:12;37.38;;;19.77;;
52530;SDS011;38441;52.894;6.040;2022-11-15T04:38:57;41.45;;;20.38;;
52530;SDS011;38441;52.894;6.040;2022-11-15T04:41:23;35.15;;;19.52;;
52530;SDS011;38441;52.894;6.040;2022-11-15T04:43:49;40.67;;;20.58;;
52530;SDS011;38441;52.894;6.040;2022-11-15T04:46:15;37.40;;;19.65;;
52530;SDS011;38441;52.894;6.040;2022-11-15T04:48:41;42.63;;;21.35;;
52530;SDS011;38441;52.894;6.040;2022-11-15T04:51:07;40.17;;;21.38;;
52530;SDS011;38441;52.894;6.040;2022-11-15T04:53:33;39.88;;;21.77;;
52530;SDS011;38441;52.894;6.040;2022-11-15T04:55:59;43.45;;;21.40;;
52530;SDS011;38441;52.894;6.040;2022-11-15T04:58:25;40.78;;;22.27;;
52530;SDS011;38441;52.894;6.040;2022-11-15T05:00:50;42.85;;;21.88;;
52530;SDS011;38441;52.894;6.040;2022-11-15T05:03:16;42.33;;;21.45;;
52530;SDS011;38441;52.894;6.040;2022-11-15T05:06:01;45.10;;;23.08;;
52530;SDS011;38441;52.894;6.040;2022-11-15T05:08:27;45.97;;;22.25;;
52530;SDS011;38441;52.894;6.040;2022-11-15T05:10:53;45.25;;;23.27;;
52530;SDS011;38441;52.894;6.040;2022-11-15T05:13:19;51.70;;;24.42;;
52530;SDS011;38441;52.894;6.040;2022-11-15T05:15:44;48.38;;;24.08;;
52530;SDS011;38441;52.894;6.040;2022-11-15T05:18:10;50.90;;;23.63;;
52530;SDS011;38441;52.894;6.040;2022-11-15T05:20:36;45.53;;;23.38;;
52530;SDS011;38441;52.894;6.040;2022-11-15T05:23:02;51.15;;;24.17;;
52530;SDS011;38441;52.894;6.040;2022-11-15T05:25:28;47.75;;;24.88;;
52530;SDS011;38441;52.894;6.040;2022-11-15T05:27:54;51.22;;;25.38;;
52530;SDS011;38441;52.894;6.040;2022-11-15T05:30:19;49.42;;;24.35;;
52530;SDS011;38441;52.894;6.040;2022-11-15T05:32:45;47.63;;;24.60;;
52530;SDS011;38441;52.894;6.040;2022-11-15T05:35:30;54.78;;;25.25;;
52530;SDS011;38441;52.894;6.040;2022-11-15T05:38:00;47.20;;;23.85;;
52530;SDS011;38441;52.894;6.040;2022-11-15T05:40:26;51.67;;;24.83;;
52530;SDS011;38441;52.894;6.040;2022-11-15T05:42:53;57.70;;;25.55;;
52530;SDS011;38441;52.894;6.040;2022-11-15T05:45:19;57.97;;;26.73;;
52530;SDS011;38441;52.894;6.040;2022-11-15T05:47:45;56.65;;;26.70;;
52530;SDS011;38441;52.894;6.040;2022-11-15T05:50:12;55.90;;;24.88;;
52530;SDS011;38441;52.894;6.040;2022-11-15T05:52:41;48.83;;;24.67;;
52530;SDS011;38441;52.894;6.040;2022-11-15T05:55:07;50.92;;;24.55;;
52530;SDS011;38441;52.894;6.040;2022-11-15T05:57:34;53.50;;;25.00;;
52530;SDS011;38441;52.894;6.040;2022-11-15T06:00:00;49.28;;;24.00;;
52530;SDS011;38441;52.894;6.040;2022-11-15T06:02:26;55.53;;;25.30;;
52530;SDS011;38441;52.894;6.040;2022-11-15T06:04:52;49.67;;;24.08;;
52530;SDS011;38441;52.894;6.040;2022-11-15T06:07:17;56.33;;;25.67;;
52530;SDS011;38441;52.894;6.040;2022-11-15T06:09:43;49.78;;;24.48;;
52530;SDS011;38441;52.894;6.040;2022-11-15T06:12:09;46.55;;;23.98;;
52530;SDS011;38441;52.894;6.040;2022-11-15T06:14:35;54.08;;;25.55;;
52530;SDS011;38441;52.894;6.040;2022-11-15T06:17:00;50.55;;;25.00;;
52530;SDS011;38441;52.894;6.040;2022-11-15T06:19:27;54.78;;;27.45;;
52530;SDS011;38441;52.894;6.040;2022-11-15T06:21:58;48.67;;;25.10;;
52530;SDS011;38441;52.894;6.040;2022-11-15T06:24:27;49.15;;;24.73;;
52530;SDS011;38441;52.894;6.040;2022-11-15T06:26:52;50.67;;;24.90;;
52530;SDS011;38441;52.894;6.040;2022-11-15T06:29:18;45.53;;;24.08;;
52530;SDS011;38441;52.894;6.040;2022-11-15T06:31:44;45.92;;;24.13;;
52530;SDS011;38441;52.894;6.040;2022-11-15T06:34:09;53.95;;;25.95;;
52530;SDS011;38441;52.894;6.040;2022-11-15T06:36:35;42.47;;;23.77;;
52530;SDS011;38441;52.894;6.040;2022-11-15T06:39:04;47.03;;;24.55;;
52530;SDS011;38441;52.894;6.040;2022-11-15T06:41:33;46.78;;;22.98;;
52530;SDS011;38441;52.894;6.040;2022-11-15T06:43:59;50.45;;;24.88;;
52530;SDS011;38441;52.894;6.040;2022-11-15T06:46:24;46.05;;;23.95;;
52530;SDS011;38441;52.894;6.040;2022-11-15T06:48:50;44.53;;;24.48;;
52530;SDS011;38441;52.894;6.040;2022-11-15T06:51:17;44.30;;;24.50;;
52530;SDS011;38441;52.894;6.040;2022-11-15T06:53:42;46.10;;;23.98;;
52530;SDS011;38441;52.894;6.040;2022-11-15T06:56:08;47.05;;;24.92;;
52530;SDS011;38441;52.894;6.040;2022-11-15T06:58:34;45.13;;;24.65;;
52530;SDS011;38441;52.894;6.040;2022-11-15T07:01:04;45.17;;;24.33;;
52530;SDS011;38441;52.894;6.040;2022-11-15T07:03:33;39.38;;;23.17;;
52530;SDS011;38441;52.894;6.040;2022-11-15T07:06:00;43.33;;;22.95;;
52530;SDS011;38441;52.894;6.040;2022-11-15T07:08:26;43.28;;;24.15;;
52530;SDS011;38441;52.894;6.040;2022-11-15T07:10:53;45.78;;;23.92;;
52530;SDS011;38441;52.894;6.040;2022-11-15T07:13:19;39.28;;;22.83;;
52530;SDS011;38441;52.894;6.040;2022-11-15T07:15:48;42.67;;;23.42;;
52530;SDS011;38441;52.894;6.040;2022-11-15T07:18:14;38.75;;;24.05;;
52530;SDS011;38441;52.894;6.040;2022-11-15T07:20:39;39.53;;;22.35;;
52530;SDS011;38441;52.894;6.040;2022-11-15T07:23:05;40.00;;;23.40;;
52530;SDS011;38441;52.894;6.040;2022-11-15T07:25:31;40.70;;;23.42;;
52530;SDS011;38441;52.894;6.040;2022-11-15T07:27:57;42.88;;;23.20;;
52530;SDS011;38441;52.894;6.040;2022-11-15T07:30:23;41.47;;;23.85;;
52530;SDS011;38441;52.894;6.040;2022-11-15T07:32:56;40.75;;;22.42;;
52530;SDS011;38441;52.894;6.040;2022-11-15T07:35:23;39.45;;;22.67;;
52530;SDS011;38441;52.894;6.040;2022-11-15T07:37:56;40.95;;;22.77;;
52530;SDS011;38441;52.894;6.040;2022-11-15T07:40:26;42.35;;;22.55;;
52530;SDS011;38441;52.894;6.040;2022-11-15T07:43:03;40.60;;;21.52;;
52530;SDS011;38441;52.894;6.040;2022-11-15T07:45:30;39.72;;;22.98;;
52530;SDS011;38441;52.894;6.040;2022-11-15T07:47:58;37.47;;;22.05;;
52530;SDS011;38441;52.894;6.040;2022-11-15T07:50:24;36.97;;;21.17;;
52530;SDS011;38441;52.894;6.040;2022-11-15T07:52:57;36.40;;;21.80;;
52530;SDS011;38441;52.894;6.040;2022-11-15T07:55:24;34.50;;;21.73;;
52530;SDS011;38441;52.894;6.040;2022-11-15T07:57:53;33.00;;;21.38;;
52530;SDS011;38441;52.894;6.040;2022-11-15T08:00:29;34.42;;;21.23;;
52530;SDS011;38441;52.894;6.040;2022-11-15T08:03:04;37.00;;;21.35;;
52530;SDS011;38441;52.894;6.040;2022-11-15T08:05:32;35.17;;;21.95;;
52530;SDS011;38441;52.894;6.040;2022-11-15T08:07:58;34.75;;;21.35;;
52530;SDS011;38441;52.894;6.040;2022-11-15T08:10:24;30.98;;;20.85;;
52530;SDS011;38441;52.894;6.040;2022-11-15T08:13:00;36.75;;;21.42;;
52530;SDS011;38441;52.894;6.040;2022-11-15T08:15:28;37.90;;;21.70;;
52530;SDS011;38441;52.894;6.040;2022-11-15T08:17:55;35.78;;;21.67;;
52530;SDS011;38441;52.894;6.040;2022-11-15T08:20:22;32.53;;;21.35;;
52530;SDS011;38441;52.894;6.040;2022-11-15T08:22:48;32.80;;;21.73;;
52530;SDS011;38441;52.894;6.040;2022-11-15T08:25:15;34.67;;;21.00;;
52530;SDS011;38441;52.894;6.040;2022-11-15T08:27:40;32.53;;;20.48;;
52530;SDS011;38441;52.894;6.040;2022-11-15T08:30:06;36.22;;;20.90;;
52530;SDS011;38441;52.894;6.040;2022-11-15T08:32:32;31.83;;;21.35;;
52530;SDS011;38441;52.894;6.040;2022-11-15T08:34:58;32.42;;;20.25;;
52530;SDS011;38441;52.894;6.040;2022-11-15T08:37:23;36.55;;;21.98;;
52530;SDS011;38441;52.894;6.040;2022-11-15T08:39:50;32.97;;;21.35;;
52530;SDS011;38441;52.894;6.040;2022-11-15T08:42:15;34.20;;;21.85;;
52530;SDS011;38441;52.894;6.040;2022-11-15T08:44:41;34.15;;;20.50;;
52530;SDS011;38441;52.894;6.040;2022-11-15T08:47:07;30.40;;;20.30;;
52530;SDS011;38441;52.894;6.040;2022-11-15T08:49:36;34.35;;;21.75;;
52530;SDS011;38441;52.894;6.040;2022-11-15T08:52:01;34.72;;;20.23;;
52530;SDS011;38441;52.894;6.040;2022-11-15T08:54:27;32.42;;;19.98;;
52530;SDS011;38441;52.894;6.040;2022-11-15T08:56:53;31.70;;;19.55;;
52530;SDS011;38441;52.894;6.040;2022-11-15T08:59:19;34.28;;;19.92;;
52530;SDS011;38441;52.894;6.040;2022-11-15T09:01:44;31.95;;;19.13;;
52530;SDS011;38441;52.894;6.040;2022-11-15T09:04:10;35.90;;;20.38;;
52530;SDS011;38441;52.894;6.040;2022-11-15T09:06:36;27.92;;;19.58;;
52530;SDS011;38441;52.894;6.040;2022-11-15T09:09:02;32.00;;;21.00;;
52530;SDS011;38441;52.894;6.040;2022-11-15T09:11:28;32.25;;;20.45;;
52530;SDS011;38441;52.894;6.040;2022-11-15T09:13:53;30.20;;;20.23;;
52530;SDS011;38441;52.894;6.040;2022-11-15T09:16:19;28.52;;;19.92;;
52530;SDS011;38441;52.894;6.040;2022-11-15T09:18:45;32.45;;;19.55;;
52530;SDS011;38441;52.894;6.040;2022-11-15T09:21:11;30.65;;;19.67;;
52530;SDS011;38441;52.894;6.040;2022-11-15T09:23:36;30.30;;;20.08;;
52530;SDS011;38441;52.894;6.040;2022-11-15T09:26:03;31.75;;;19.35;;
52530;SDS011;38441;52.894;6.040;2022-11-15T09:28:30;29.33;;;19.73;;
52530;SDS011;38441;52.894;6.040;2022-11-15T09:30:57;33.38;;;19.60;;
52530;SDS011;38441;52.894;6.040;2022-11-15T09:33:23;34.50;;;20.38;;
52530;SDS011;38441;52.894;6.040;2022-11-15T09:35:49;33.85;;;19.63;;
52530;SDS011;38441;52.894;6.040;2022-11-15T09:38:15;29.00;;;19.42;;
52530;SDS011;38441;52.894;6.040;2022-11-15T09:40:40;27.08;;;18.83;;
52530;SDS011;38441;52.894;6.040;2022-11-15T09:51:18;26.77;;;18.02;;
52530;SDS011;38441;52.894;6.040;2022-11-15T09:56:26;27.30;;;16.98;;
52530;SDS011;38441;52.894;6.040;2022-11-15T10:04:13;26.42;;;18.88;;
52530;SDS011;38441;52.894;6.040;2022-11-15T10:06:40;29.38;;;18.55;;
52530;SDS011;38441;52.894;6.040;2022-11-15T10:09:23;27.65;;;18.38;;
52530;SDS011;38441;52.894;6.040;2022-11-15T10:11:54;23.98;;;17.83;;
52530;SDS011;38441;52.894;6.040;2022-11-15T10:14:21;25.85;;;17.17;;
52530;SDS011;38441;52.894;6.040;2022-11-15T10:20:12;24.65;;;17.27;;
52530;SDS011;38441;52.894;6.040;2022-11-15T10:22:50;21.35;;;15.77;;
52530;SDS011;38441;52.894;6.040;2022-11-15T10:25:24;21.42;;;16.35;;
52530;SDS011;38441;52.894;6.040;2022-11-15T10:30:30;22.73;;;15.90;;
52530;SDS011;38441;52.894;6.040;2022-11-15T10:33:08;23.08;;;15.27;;
52530;SDS011;38441;52.894;6.040;2022-11-15T10:41:17;19.75;;;13.32;;
52530;SDS011;38441;52.894;6.040;2022-11-15T10:44:41;20.08;;;14.38;;
52530;SDS011;38441;52.894;6.040;2022-11-15T10:49:24;18.40;;;13.07;;
52530;SDS011;38441;52.894;6.040;2022-11-15T10:51:56;17.88;;;12.15;;
52530;SDS011;38441;52.894;6.040;2022-11-15T10:54:25;17.40;;;12.30;;
52530;SDS011;38441;52.894;6.040;2022-11-15T10:57:04;16.33;;;11.90;;
52530;SDS011;38441;52.894;6.040;2022-11-15T10:59:45;16.90;;;11.27;;
52530;SDS011;38441;52.894;6.040;2022-11-15T11:02:27;14.43;;;10.60;;
52530;SDS011;38441;52.894;6.040;2022-11-15T11:04:58;16.35;;;10.63;;
52530;SDS011;38441;52.894;6.040;2022-11-15T11:07:28;13.25;;;10.35;;
52530;SDS011;38441;52.894;6.040;2022-11-15T11:10:00;11.23;;;8.93;;
52530;SDS011;38441;52.894;6.040;2022-11-15T11:12:46;12.57;;;8.82;;
52530;SDS011;38441;52.894;6.040;2022-11-15T11:15:13;12.02;;;9.20;;
52530;SDS011;38441;52.894;6.040;2022-11-15T11:34:36;14.20;;;8.07;;
52530;SDS011;38441;52.894;6.040;2022-11-15T11:37:14;10.95;;;7.75;;
52530;SDS011;38441;52.894;6.040;2022-11-15T11:42:43;10.38;;;7.60;;
52530;SDS011;38441;52.894;6.040;2022-11-15T11:50:46;11.35;;;7.22;;
52530;SDS011;38441;52.894;6.040;2022-11-15T11:53:27;20.63;;;7.90;;
52530;SDS011;38441;52.894;6.040;2022-11-15T11:55:57;12.15;;;7.43;;
52530;SDS011;38441;52.894;6.040;2022-11-15T11:58:30;10.60;;;6.67;;
52530;SDS011;38441;52.894;6.040;2022-11-15T12:03:48;7.57;;;5.53;;
52530;SDS011;38441;52.894;6.040;2022-11-15T12:06:42;11.77;;;6.00;;
52530;SDS011;38441;52.894;6.040;2022-11-15T12:16:57;8.45;;;4.50;;
52530;SDS011;38441;52.894;6.040;2022-11-15T12:19:23;8.18;;;3.88;;
52530;SDS011;38441;52.894;6.040;2022-11-15T12:21:52;5.80;;;3.90;;
52530;SDS011;38441;52.894;6.040;2022-11-15T12:24:32;7.07;;;3.67;;
52530;SDS011;38441;52.894;6.040;2022-11-15T12:27:16;7.00;;;3.63;;
52530;SDS011;38441;52.894;6.040;2022-11-15T12:29:49;7.03;;;4.10;;
52530;SDS011;38441;52.894;6.040;2022-11-15T12:32:29;7.05;;;3.88;;
52530;SDS011;38441;52.894;6.040;2022-11-15T12:34:58;6.63;;;3.70;;
52530;SDS011;38441;52.894;6.040;2022-11-15T12:37:46;6.25;;;3.10;;
52530;SDS011;38441;52.894;6.040;2022-11-15T12:43:00;7.63;;;3.25;;
52530;SDS011;38441;52.894;6.040;2022-11-15T12:45:51;6.03;;;3.03;;
52530;SDS011;38441;52.894;6.040;2022-11-15T12:58:43;5.90;;;2.85;;
52530;SDS011;38441;52.894;6.040;2022-11-15T13:11:57;5.55;;;2.60;;
52530;SDS011;38441;52.894;6.040;2022-11-15T13:17:09;5.53;;;2.60;;
52530;SDS011;38441;52.894;6.040;2022-11-15T13:19:57;5.25;;;2.90;;
52530;SDS011;38441;52.894;6.040;2022-11-15T13:22:24;6.15;;;2.60;;
52530;SDS011;38441;52.894;6.040;2022-11-15T13:25:14;6.35;;;2.60;;
52530;SDS011;38441;52.894;6.040;2022-11-15T13:27:44;4.38;;;2.58;;
52530;SDS011;38441;52.894;6.040;2022-11-15T13:30:24;3.17;;;1.83;;
52530;SDS011;38441;52.894;6.040;2022-11-15T13:32:51;4.45;;;2.00;;
52530;SDS011;38441;52.894;6.040;2022-11-15T13:35:28;4.28;;;2.10;;
52530;SDS011;38441;52.894;6.040;2022-11-15T13:37:56;4.00;;;2.00;;
52530;SDS011;38441;52.894;6.040;2022-11-15T13:40:37;4.18;;;2.03;;
52530;SDS011;38441;52.894;6.040;2022-11-15T13:49:00;5.07;;;1.85;;
52530;SDS011;38441;52.894;6.040;2022-11-15T13:51:37;2.47;;;1.52;;
52530;SDS011;38441;52.894;6.040;2022-11-15T13:54:19;4.72;;;2.20;;
52530;SDS011;38441;52.894;6.040;2022-11-15T13:56:53;5.53;;;2.22;;
52530;SDS011;38441;52.894;6.040;2022-11-15T13:59:47;4.38;;;1.70;;
52530;SDS011;38441;52.894;6.040;2022-11-15T14:02:20;6.45;;;2.22;;
52530;SDS011;38441;52.894;6.040;2022-11-15T14:04:52;6.85;;;2.10;;
52530;SDS011;38441;52.894;6.040;2022-11-15T14:07:30;7.90;;;2.22;;
52530;SDS011;38441;52.894;6.040;2022-11-15T14:09:55;6.45;;;2.40;;
52530;SDS011;38441;52.894;6.040;2022-11-15T14:12:31;5.88;;;2.40;;
52530;SDS011;38441;52.894;6.040;2022-11-15T14:14:59;5.30;;;1.90;;
52530;SDS011;38441;52.894;6.040;2022-11-15T14:17:44;5.32;;;1.77;;
52530;SDS011;38441;52.894;6.040;2022-11-15T14:23:18;5.78;;;1.50;;
52530;SDS011;38441;52.894;6.040;2022-11-15T14:25:57;3.75;;;1.88;;
52530;SDS011;38441;52.894;6.040;2022-11-15T14:30:50;3.83;;;1.27;;
52530;SDS011;38441;52.894;6.040;2022-11-15T14:33:25;4.65;;;1.25;;
52530;SDS011;38441;52.894;6.040;2022-11-15T14:36:13;10.02;;;1.42;;
52530;SDS011;38441;52.894;6.040;2022-11-15T14:38:40;7.45;;;1.17;;
52530;SDS011;38441;52.894;6.040;2022-11-15T14:41:18;3.85;;;1.30;;
52530;SDS011;38441;52.894;6.040;2022-11-15T14:43:48;3.75;;;1.40;;
52530;SDS011;38441;52.894;6.040;2022-11-15T14:46:14;5.47;;;1.00;;
52530;SDS011;38441;52.894;6.040;2022-11-15T14:48:40;3.05;;;1.13;;
52530;SDS011;38441;52.894;6.040;2022-11-15T14:51:10;4.20;;;0.85;;
52530;SDS011;38441;52.894;6.040;2022-11-15T14:53:41;3.08;;;0.90;;
52530;SDS011;38441;52.894;6.040;2022-11-15T14:56:08;2.53;;;0.82;;
52530;SDS011;38441;52.894;6.040;2022-11-15T14:58:34;3.45;;;0.98;;
52530;SDS011;38441;52.894;6.040;2022-11-15T15:01:01;2.60;;;1.00;;
52530;SDS011;38441;52.894;6.040;2022-11-15T15:03:42;3.22;;;0.88;;
52530;SDS011;38441;52.894;6.040;2022-11-15T15:06:09;2.25;;;1.10;;
52530;SDS011;38441;52.894;6.040;2022-11-15T15:08:34;4.55;;;0.90;;
52530;SDS011;38441;52.894;6.040;2022-11-15T15:11:00;2.30;;;0.68;;
52530;SDS011;38441;52.894;6.040;2022-11-15T15:13:26;2.42;;;1.15;;
52530;SDS011;38441;52.894;6.040;2022-11-15T15:15:53;5.97;;;2.20;;
52530;SDS011;38441;52.894;6.040;2022-11-15T15:18:19;7.82;;;2.42;;
52530;SDS011;38441;52.894;6.040;2022-11-15T15:20:45;4.97;;;2.00;;
52530;SDS011;38441;52.894;6.040;2022-11-15T15:23:17;7.47;;;2.25;;
52530;SDS011;38441;52.894;6.040;2022-11-15T15:25:43;5.75;;;1.65;;
52530;SDS011;38441;52.894;6.040;2022-11-15T15:28:10;4.75;;;1.35;;
52530;SDS011;38441;52.894;6.040;2022-11-15T15:30:36;3.80;;;1.70;;
52530;SDS011;38441;52.894;6.040;2022-11-15T15:33:02;2.05;;;1.27;;
52530;SDS011;38441;52.894;6.040;2022-11-15T15:35:29;5.57;;;1.38;;
52530;SDS011;38441;52.894;6.040;2022-11-15T15:37:56;4.38;;;1.27;;
52530;SDS011;38441;52.894;6.040;2022-11-15T15:40:23;4.30;;;1.63;;
52530;SDS011;38441;52.894;6.040;2022-11-15T15:42:49;3.47;;;1.40;;
52530;SDS011;38441;52.894;6.040;2022-11-15T15:45:16;4.18;;;1.77;;
52530;SDS011;38441;52.894;6.040;2022-11-15T15:47:43;5.10;;;2.35;;
52530;SDS011;38441;52.894;6.040;2022-11-15T15:50:23;2.88;;;1.77;;
52530;SDS011;38441;52.894;6.040;2022-11-15T15:52:51;5.53;;;2.50;;
52530;SDS011;38441;52.894;6.040;2022-11-15T15:55:18;5.47;;;2.13;;
52530;SDS011;38441;52.894;6.040;2022-11-15T15:57:43;4.53;;;2.38;;
52530;SDS011;38441;52.894;6.040;2022-11-15T16:00:09;7.07;;;2.42;;
52530;SDS011;38441;52.894;6.040;2022-11-15T16:02:36;6.63;;;2.10;;
52530;SDS011;38441;52.894;6.040;2022-11-15T16:05:01;5.18;;;2.95;;
52530;SDS011;38441;52.894;6.040;2022-11-15T16:07:27;4.18;;;2.38;;
52530;SDS011;38441;52.894;6.040;2022-11-15T16:09:54;5.50;;;2.50;;
52530;SDS011;38441;52.894;6.040;2022-11-15T16:12:33;6.18;;;2.80;;
52530;SDS011;38441;52.894;6.040;2022-11-15T16:15:00;5.15;;;2.88;;
52530;SDS011;38441;52.894;6.040;2022-11-15T16:17:28;6.22;;;3.25;;
52530;SDS011;38441;52.894;6.040;2022-11-15T16:20:00;7.00;;;3.30;;
52530;SDS011;38441;52.894;6.040;2022-11-15T16:22:26;5.40;;;2.90;;
52530;SDS011;38441;52.894;6.040;2022-11-15T16:24:54;8.02;;;4.38;;
52530;SDS011;38441;52.894;6.040;2022-11-15T16:27:20;5.25;;;2.97;;
52530;SDS011;38441;52.894;6.040;2022-11-15T16:29:46;6.82;;;3.08;;
52530;SDS011;38441;52.894;6.040;2022-11-15T16:32:12;5.05;;;3.45;;
52530;SDS011;38441;52.894;6.040;2022-11-15T16:34:39;4.90;;;3.47;;
52530;SDS011;38441;52.894;6.040;2022-11-15T16:37:05;6.85;;;3.03;;
52530;SDS011;38441;52.894;6.040;2022-11-15T16:39:31;8.02;;;3.47;;
52530;SDS011;38441;52.894;6.040;2022-11-15T16:42:00;6.40;;;2.97;;
52530;SDS011;38441;52.894;6.040;2022-11-15T16:44:27;5.55;;;2.63;;
52530;SDS011;38441;52.894;6.040;2022-11-15T16:46:53;6.57;;;3.05;;
52530;SDS011;38441;52.894;6.040;2022-11-15T16:49:19;4.93;;;2.70;;
52530;SDS011;38441;52.894;6.040;2022-11-15T16:51:45;5.30;;;2.67;;
52530;SDS011;38441;52.894;6.040;2022-11-15T16:54:12;6.47;;;2.83;;
52530;SDS011;38441;52.894;6.040;2022-11-15T16:56:38;5.60;;;2.20;;
52530;SDS011;38441;52.894;6.040;2022-11-15T16:59:05;6.00;;;2.83;;